sensor_id;sensor_type;location;lat;lon;timestamp;pressure;altitude;pressure_sealevel;temperature;humidity
55347;BME280;41218;55.700;38.270;2023-02-21T00:02:29;97608.72;;;-13.02;67.95
55347;BME280;41218;55.700;38.270;2023-02-21T00:07:48;97607.41;;;-13.09;67.42
55347;BME280;41218;55.700;38.270;2023-02-21T00:13:08;97617.75;;;-13.08;67.88
55347;BME280;41218;55.700;38.270;2023-02-21T00:18:27;97616.97;;;-13.08;67.88
55347;BME280;41218;55.700;38.270;2023-02-21T00:23:46;97599.44;;;-13.15;67.58
55347;BME280;41218;55.700;38.270;2023-02-21T00:29:06;97606.59;;;-13.10;67.50
55347;BME280;41218;55.700;38.270;2023-02-21T00:34:25;97602.63;;;-13.13;67.77
55347;BME280;41218;55.700;38.270;2023-02-21T00:39:44;97595.47;;;-13.17;67.37
55347;BME280;41218;55.700;38.270;2023-02-21T00:45:04;97600.50;;;-13.21;67.55
55347;BME280;41218;55.700;38.270;2023-02-21T00:50:23;97597.56;;;-13.24;67.58
55347;BME280;41218;55.700;38.270;2023-02-21T00:55:42;97587.00;;;-13.35;67.55
55347;BME280;41218;55.700;38.270;2023-02-21T01:01:01;97586.69;;;-13.28;67.29
55347;BME280;41218;55.700;38.270;2023-02-21T01:06:20;97577.44;;;-13.36;67.13
55347;BME280;41218;55.700;38.270;2023-02-21T01:11:39;97570.25;;;-13.35;67.63
55347;BME280;41218;55.700;38.270;2023-02-21T01:16:59;97557.78;;;-13.40;67.25
55347;BME280;41218;55.700;38.270;2023-02-21T01:22:18;97558.56;;;-13.39;67.26
55347;BME280;41218;55.700;38.270;2023-02-21T01:27:37;97546.63;;;-13.42;67.26
55347;BME280;41218;55.700;38.270;2023-02-21T01:32:56;97539.16;;;-13.45;67.75
55347;BME280;41218;55.700;38.270;2023-02-21T01:38:15;97543.97;;;-13.47;66.92
55347;BME280;41218;55.700;38.270;2023-02-21T01:43:35;97548.75;;;-13.49;67.25
55347;BME280;41218;55.700;38.270;2023-02-21T01:48:54;97542.63;;;-13.55;67.20
55347;BME280;41218;55.700;38.270;2023-02-21T01:54:15;97542.13;;;-13.62;67.25
55347;BME280;41218;55.700;38.270;2023-02-21T01:59:35;97543.97;;;-13.67;67.21
55347;BME280;41218;55.700;38.270;2023-02-21T02:04:54;97552.75;;;-13.77;67.16
55347;BME280;41218;55.700;38.270;2023-02-21T02:10:14;97548.22;;;-13.87;66.88
55347;BME280;41218;55.700;38.270;2023-02-21T02:46:48;97547.69;;;-14.15;66.62
55347;BME280;41218;55.700;38.270;2023-02-21T02:51:51;97545.28;;;-14.16;66.83
55347;BME280;41218;55.700;38.270;2023-02-21T02:56:51;97540.25;;;-14.23;66.91
55347;BME280;41218;55.700;38.270;2023-02-21T03:02:53;97536.25;;;-14.25;66.66
55347;BME280;41218;55.700;38.270;2023-02-21T03:12:48;97529.59;;;-14.38;66.64
55347;BME280;41218;55.700;38.270;2023-02-21T03:17:57;97530.91;;;-14.46;66.84
55347;BME280;41218;55.700;38.270;2023-02-21T03:22:59;97526.91;;;-14.54;66.68
55347;BME280;41218;55.700;38.270;2023-02-21T03:28:02;97523.22;;;-14.58;66.80
55347;BME280;41218;55.700;38.270;2023-02-21T03:33:02;97518.16;;;-14.64;66.52
55347;BME280;41218;55.700;38.270;2023-02-21T03:38:03;97517.63;;;-14.71;66.55
55347;BME280;41218;55.700;38.270;2023-02-21T03:43:05;97522.38;;;-14.74;66.42
55347;BME280;41218;55.700;38.270;2023-02-21T03:48:08;97528.44;;;-14.78;66.80
55347;BME280;41218;55.700;38.270;2023-02-21T03:53:09;97519.69;;;-14.89;66.35
55347;BME280;41218;55.700;38.270;2023-02-21T03:58:10;97522.31;;;-14.89;66.28
55347;BME280;41218;55.700;38.270;2023-02-21T04:03:10;97513.00;;;-15.02;66.55
55347;BME280;41218;55.700;38.270;2023-02-21T04:08:11;97519.63;;;-14.99;66.05
55347;BME280;41218;55.700;38.270;2023-02-21T04:13:12;97519.88;;;-15.06;66.46
55347;BME280;41218;55.700;38.270;2023-02-21T04:18:13;97511.06;;;-15.17;66.48
55347;BME280;41218;55.700;38.270;2023-02-21T04:23:20;97516.66;;;-15.18;66.83
55347;BME280;41218;55.700;38.270;2023-02-21T04:28:21;97523.53;;;-15.22;66.65
55347;BME280;41218;55.700;38.270;2023-02-21T04:33:21;97526.13;;;-15.27;66.27
55347;BME280;41218;55.700;38.270;2023-02-21T04:38:22;97510.44;;;-15.39;66.70
55347;BME280;41218;55.700;38.270;2023-02-21T04:43:22;97524.75;;;-15.40;66.36
55347;BME280;41218;55.700;38.270;2023-02-21T04:48:23;97537.16;;;-15.41;65.88
55347;BME280;41218;55.700;38.270;2023-02-21T04:53:24;97528.66;;;-15.48;66.29
55347;BME280;41218;55.700;38.270;2023-02-21T04:58:24;97539.25;;;-15.48;66.57
55347;BME280;41218;55.700;38.270;2023-02-21T05:03:25;97537.41;;;-15.52;66.14
55347;BME280;41218;55.700;38.270;2023-02-21T05:08:25;97540.03;;;-15.52;66.72
55347;BME280;41218;55.700;38.270;2023-02-21T05:13:26;97542.16;;;-15.55;66.29
55347;BME280;41218;55.700;38.270;2023-02-21T05:18:26;97540.03;;;-15.52;66.12
55347;BME280;41218;55.700;38.270;2023-02-21T05:23:27;97533.13;;;-15.54;66.42
55347;BME280;41218;55.700;38.270;2023-02-21T05:28:35;97538.69;;;-15.55;66.07
55347;BME280;41218;55.700;38.270;2023-02-21T05:33:36;97539.75;;;-15.56;66.01
55347;BME280;41218;55.700;38.270;2023-02-21T05:38:47;97539.75;;;-15.56;66.39
55347;BME280;41218;55.700;38.270;2023-02-21T05:43:48;97542.16;;;-15.55;66.30
55347;BME280;41218;55.700;38.270;2023-02-21T05:48:49;97542.94;;;-15.54;66.28
55347;BME280;41218;55.700;38.270;2023-02-21T05:53:50;97540.53;;;-15.61;65.75
55347;BME280;41218;55.700;38.270;2023-02-21T05:58:50;97541.53;;;-15.67;65.87
55347;BME280;41218;55.700;38.270;2023-02-21T06:03:51;97544.19;;;-15.67;65.51
55347;BME280;41218;55.700;38.270;2023-02-21T06:08:51;97546.03;;;-15.72;65.55
55347;BME280;41218;55.700;38.270;2023-02-21T06:13:53;97537.25;;;-15.78;66.06
55347;BME280;41218;55.700;38.270;2023-02-21T06:18:55;97549.72;;;-15.68;65.75
55347;BME280;41218;55.700;38.270;2023-02-21T06:23:56;97540.38;;;-15.81;65.49
55347;BME280;41218;55.700;38.270;2023-02-21T06:28:57;97542.03;;;-15.75;65.38
55347;BME280;41218;55.700;38.270;2023-02-21T06:33:58;97546.06;;;-15.62;65.48
55347;BME280;41218;55.700;38.270;2023-02-21T06:38:59;97540.22;;;-15.64;65.53
55347;BME280;41218;55.700;38.270;2023-02-21T06:44:00;97545.88;;;-15.50;66.09
55347;BME280;41218;55.700;38.270;2023-02-21T06:49:00;97546.19;;;-15.42;65.84
55347;BME280;41218;55.700;38.270;2023-02-21T06:54:01;97553.66;;;-15.34;65.24
55347;BME280;41218;55.700;38.270;2023-02-21T06:59:02;97548.84;;;-15.37;65.12
55347;BME280;41218;55.700;38.270;2023-02-21T07:04:02;97546.97;;;-15.46;65.12
55347;BME280;41218;55.700;38.270;2023-02-21T07:09:03;97543.28;;;-15.40;65.22
55347;BME280;41218;55.700;38.270;2023-02-21T07:14:04;97549.94;;;-15.33;65.16
55347;BME280;41218;55.700;38.270;2023-02-21T07:19:04;97547.91;;;-15.20;65.32
55347;BME280;41218;55.700;38.270;2023-02-21T07:24:05;97554.06;;;-15.04;65.50
55347;BME280;41218;55.700;38.270;2023-02-21T07:29:05;97544.28;;;-14.99;65.28
55347;BME280;41218;55.700;38.270;2023-02-21T07:34:06;97560.03;;;-14.82;65.36
55347;BME280;41218;55.700;38.270;2023-02-21T07:39:07;97559.50;;;-14.74;65.15
55347;BME280;41218;55.700;38.270;2023-02-21T07:44:07;97558.47;;;-14.62;65.51
55347;BME280;41218;55.700;38.270;2023-02-21T07:49:08;97564.56;;;-14.52;65.41
55347;BME280;41218;55.700;38.270;2023-02-21T07:54:08;97560.13;;;-14.41;64.81
55347;BME280;41218;55.700;38.270;2023-02-21T07:59:09;97557.97;;;-14.44;65.11
55347;BME280;41218;55.700;38.270;2023-02-21T08:04:10;97555.34;;;-14.34;64.95
55347;BME280;41218;55.700;38.270;2023-02-21T08:09:10;97561.75;;;-14.14;64.80
55347;BME280;41218;55.700;38.270;2023-02-21T08:14:11;97560.16;;;-14.00;65.34
55347;BME280;41218;55.700;38.270;2023-02-21T08:19:11;97559.91;;;-13.83;65.17
55347;BME280;41218;55.700;38.270;2023-02-21T08:24:12;97558.06;;;-13.77;65.09
55347;BME280;41218;55.700;38.270;2023-02-21T08:29:14;97560.44;;;-13.76;64.71
55347;BME280;41218;55.700;38.270;2023-02-21T08:34:14;97557.78;;;-13.76;64.72
55347;BME280;41218;55.700;38.270;2023-02-21T08:39:15;97560.72;;;-13.67;64.66
55347;BME280;41218;55.700;38.270;2023-02-21T08:44:16;97552.19;;;-13.59;65.06
55347;BME280;41218;55.700;38.270;2023-02-21T08:49:17;97554.84;;;-13.43;64.85
55347;BME280;41218;55.700;38.270;2023-02-21T08:54:18;97547.69;;;-13.38;65.10
55347;BME280;41218;55.700;38.270;2023-02-21T08:59:18;97558.75;;;-13.20;64.89
55347;BME280;41218;55.700;38.270;2023-02-21T09:04:19;97552.63;;;-13.11;64.33
55347;BME280;41218;55.700;38.270;2023-02-21T09:09:19;97561.91;;;-13.03;64.51
55347;BME280;41218;55.700;38.270;2023-02-21T09:14:20;97562.72;;;-13.02;64.47
55347;BME280;41218;55.700;38.270;2023-02-21T09:19:20;97561.84;;;-12.87;64.78
55347;BME280;41218;55.700;38.270;2023-02-21T09:24:23;97558.91;;;-12.76;64.58
55347;BME280;41218;55.700;38.270;2023-02-21T09:29:25;97558.84;;;-12.60;64.13
55347;BME280;41218;55.700;38.270;2023-02-21T09:34:26;97564.13;;;-12.50;64.47
55347;BME280;41218;55.700;38.270;2023-02-21T09:39:27;97553.72;;;-12.46;64.30
55347;BME280;41218;55.700;38.270;2023-02-21T09:44:28;97548.56;;;-12.33;64.43
55347;BME280;41218;55.700;38.270;2023-02-21T09:49:35;97548.53;;;-12.22;64.40
55347;BME280;41218;55.700;38.270;2023-02-21T09:54:39;97553.28;;;-12.19;64.03
55347;BME280;41218;55.700;38.270;2023-02-21T09:59:42;97542.91;;;-12.16;64.57
55347;BME280;41218;55.700;38.270;2023-02-21T10:15:38;97552.50;;;-11.85;64.00
55347;BME280;41218;55.700;38.270;2023-02-21T10:20:52;97556.47;;;-11.78;63.86
55347;BME280;41218;55.700;38.270;2023-02-21T10:25:56;97565.69;;;-11.65;63.58
55347;BME280;41218;55.700;38.270;2023-02-21T10:31:02;97568.00;;;-11.53;63.56
55347;BME280;41218;55.700;38.270;2023-02-21T10:36:15;97572.19;;;-11.47;63.57
55347;BME280;41218;55.700;38.270;2023-02-21T10:41:16;97571.84;;;-11.35;63.63
55347;BME280;41218;55.700;38.270;2023-02-21T10:46:22;97576.84;;;-11.29;63.27
55347;BME280;41218;55.700;38.270;2023-02-21T10:51:30;97581.91;;;-11.27;63.22
55347;BME280;41218;55.700;38.270;2023-02-21T10:56:32;97593.72;;;-11.09;62.66
55347;BME280;41218;55.700;38.270;2023-02-21T11:01:36;97583.28;;;-11.05;62.17
55347;BME280;41218;55.700;38.270;2023-02-21T11:06:44;97589.88;;;-10.98;61.60
55347;BME280;41218;55.700;38.270;2023-02-21T11:11:46;97594.31;;;-10.88;62.43
55347;BME280;41218;55.700;38.270;2023-02-21T11:17:06;97597.16;;;-10.79;61.84
55347;BME280;41218;55.700;38.270;2023-02-21T11:22:06;97603.00;;;-10.77;61.85
55347;BME280;41218;55.700;38.270;2023-02-21T11:27:08;97602.09;;;-10.68;62.10
55347;BME280;41218;55.700;38.270;2023-02-21T11:32:11;97607.94;;;-10.65;61.62
55347;BME280;41218;55.700;38.270;2023-02-21T11:37:13;97609.53;;;-10.64;62.19
55347;BME280;41218;55.700;38.270;2023-02-21T11:42:30;97616.88;;;-10.51;62.23
55347;BME280;41218;55.700;38.270;2023-02-21T11:47:37;97613.84;;;-10.44;61.29
55347;BME280;41218;55.700;38.270;2023-02-21T11:52:48;97616.19;;;-10.38;61.19
55347;BME280;41218;55.700;38.270;2023-02-21T11:58:43;97625.50;;;-10.35;61.01
55347;BME280;41218;55.700;38.270;2023-02-21T12:03:42;97635.00;;;-10.29;61.38
55347;BME280;41218;55.700;38.270;2023-02-21T12:09:15;97634.66;;;-10.22;61.34
55347;BME280;41218;55.700;38.270;2023-02-21T12:19:43;97649.91;;;-10.04;60.79
55347;BME280;41218;55.700;38.270;2023-02-21T12:35:44;97664.28;;;-10.00;60.80
55347;BME280;41218;55.700;38.270;2023-02-21T12:41:15;97670.59;;;-9.91;60.42
55347;BME280;41218;55.700;38.270;2023-02-21T12:46:33;97683.59;;;-9.84;60.09
55347;BME280;41218;55.700;38.270;2023-02-21T12:51:40;97686.28;;;-9.84;59.38
55347;BME280;41218;55.700;38.270;2023-02-21T12:56:54;97693.78;;;-9.86;59.19
55347;BME280;41218;55.700;38.270;2023-02-21T13:02:03;97702.69;;;-9.91;59.40
55347;BME280;41218;55.700;38.270;2023-02-21T13:07:38;97717.09;;;-9.92;59.72
55347;BME280;41218;55.700;38.270;2023-02-21T13:12:56;97718.63;;;-9.85;59.08
55347;BME280;41218;55.700;38.270;2023-02-21T13:18:07;97717.63;;;-9.90;59.16
55347;BME280;41218;55.700;38.270;2023-02-21T13:23:45;97734.53;;;-9.94;59.44
55347;BME280;41218;55.700;38.270;2023-02-21T13:28:54;97724.19;;;-10.01;59.38
55347;BME280;41218;55.700;38.270;2023-02-21T13:33:57;97739.44;;;-10.01;59.49
55347;BME280;41218;55.700;38.270;2023-02-21T13:44:17;97746.63;;;-10.02;59.42
55347;BME280;41218;55.700;38.270;2023-02-21T14:05:38;97785.91;;;-10.27;59.50
55347;BME280;41218;55.700;38.270;2023-02-21T14:11:15;97802.84;;;-10.36;59.35
55347;BME280;41218;55.700;38.270;2023-02-21T14:16:22;97808.78;;;-10.44;59.47
55347;BME280;41218;55.700;38.270;2023-02-21T14:21:40;97821.97;;;-10.53;59.58
55347;BME280;41218;55.700;38.270;2023-02-21T14:36:56;97853.31;;;-10.69;59.69
55347;BME280;41218;55.700;38.270;2023-02-21T14:53:16;97882.28;;;-10.97;60.07
55347;BME280;41218;55.700;38.270;2023-02-21T14:58:51;97900.75;;;-11.05;60.03
55347;BME280;41218;55.700;38.270;2023-02-21T15:04:11;97904.25;;;-11.15;59.99
55347;BME280;41218;55.700;38.270;2023-02-21T15:09:19;97910.47;;;-11.25;60.33
55347;BME280;41218;55.700;38.270;2023-02-21T15:14:25;97913.16;;;-11.35;60.20
55347;BME280;41218;55.700;38.270;2023-02-21T15:19:33;97921.69;;;-11.43;60.23
55347;BME280;41218;55.700;38.270;2023-02-21T15:24:33;97941.44;;;-11.44;60.20
55347;BME280;41218;55.700;38.270;2023-02-21T15:29:34;97943.84;;;-11.48;60.30
55347;BME280;41218;55.700;38.270;2023-02-21T15:34:42;97947.31;;;-11.53;60.53
55347;BME280;41218;55.700;38.270;2023-02-21T15:39:51;97957.72;;;-11.56;60.45
55347;BME280;41218;55.700;38.270;2023-02-21T15:45:04;97961.22;;;-11.61;60.65
55347;BME280;41218;55.700;38.270;2023-02-21T15:50:14;97970.81;;;-11.65;60.76
55347;BME280;41218;55.700;38.270;2023-02-21T16:00:30;97986.00;;;-11.86;60.70
55347;BME280;41218;55.700;38.270;2023-02-21T16:05:31;98006.03;;;-11.94;60.48
55347;BME280;41218;55.700;38.270;2023-02-21T16:10:31;98010.03;;;-12.01;60.78
55347;BME280;41218;55.700;38.270;2023-02-21T16:15:33;98015.88;;;-12.04;60.93
55347;BME280;41218;55.700;38.270;2023-02-21T16:20:37;98018.53;;;-12.10;61.11
55347;BME280;41218;55.700;38.270;2023-02-21T16:26:21;98025.44;;;-12.08;60.73
55347;BME280;41218;55.700;38.270;2023-02-21T16:31:29;98035.03;;;-12.18;61.13
55347;BME280;41218;55.700;38.270;2023-02-21T16:36:31;98040.13;;;-12.16;60.83
55347;BME280;41218;55.700;38.270;2023-02-21T16:41:32;98044.59;;;-12.27;61.26
55347;BME280;41218;55.700;38.270;2023-02-21T16:46:32;98041.41;;;-12.34;61.25
55347;BME280;41218;55.700;38.270;2023-02-21T16:51:33;98059.00;;;-12.28;61.08
55347;BME280;41218;55.700;38.270;2023-02-21T16:56:35;98049.91;;;-12.37;61.04
55347;BME280;41218;55.700;38.270;2023-02-21T17:01:39;98061.84;;;-12.50;60.98
55347;BME280;41218;55.700;38.270;2023-02-21T17:06:39;98073.56;;;-12.46;61.37
55347;BME280;41218;55.700;38.270;2023-02-21T17:11:40;98076.50;;;-12.53;61.11
55347;BME280;41218;55.700;38.270;2023-02-21T17:16:41;98083.91;;;-12.60;61.77
55347;BME280;41218;55.700;38.270;2023-02-21T17:21:45;98089.75;;;-12.58;61.35
55347;BME280;41218;55.700;38.270;2023-02-21T17:26:45;98090.00;;;-12.64;61.70
55347;BME280;41218;55.700;38.270;2023-02-21T17:31:46;98102.25;;;-12.63;61.66
55347;BME280;41218;55.700;38.270;2023-02-21T17:36:51;98112.94;;;-12.58;61.59
55347;BME280;41218;55.700;38.270;2023-02-21T17:41:51;98117.44;;;-12.59;62.05
55347;BME280;41218;55.700;38.270;2023-02-21T17:46:54;98116.38;;;-12.58;61.54
55347;BME280;41218;55.700;38.270;2023-02-21T17:51:55;98121.16;;;-12.60;61.51
55347;BME280;41218;55.700;38.270;2023-02-21T17:56:55;98122.78;;;-12.59;62.05
55347;BME280;41218;55.700;38.270;2023-02-21T18:01:56;98123.81;;;-12.65;61.82
55347;BME280;41218;55.700;38.270;2023-02-21T18:06:57;98127.53;;;-12.66;61.78
55347;BME280;41218;55.700;38.270;2023-02-21T18:11:58;98133.63;;;-12.65;61.99
55347;BME280;41218;55.700;38.270;2023-02-21T18:16:59;98142.16;;;-12.68;61.98
55347;BME280;41218;55.700;38.270;2023-02-21T18:22:00;98144.50;;;-12.72;62.13
55347;BME280;41218;55.700;38.270;2023-02-21T18:27:06;98148.22;;;-12.73;62.09
55347;BME280;41218;55.700;38.270;2023-02-21T18:32:07;98143.44;;;-12.76;61.86
55347;BME280;41218;55.700;38.270;2023-02-21T18:37:08;98148.50;;;-12.75;62.35
55347;BME280;41218;55.700;38.270;2023-02-21T18:42:08;98171.91;;;-12.77;61.69
55347;BME280;41218;55.700;38.270;2023-02-21T18:47:09;98173.25;;;-12.69;61.70
55347;BME280;41218;55.700;38.270;2023-02-21T18:52:11;98177.72;;;-12.85;62.05
55347;BME280;41218;55.700;38.270;2023-02-21T18:57:12;98188.59;;;-12.86;61.96
55347;BME280;41218;55.700;38.270;2023-02-21T19:02:15;98190.41;;;-12.92;62.04
55347;BME280;41218;55.700;38.270;2023-02-21T19:07:16;98191.97;;;-12.96;61.60
55347;BME280;41218;55.700;38.270;2023-02-21T19:12:17;98205.28;;;-12.96;61.99
55347;BME280;41218;55.700;38.270;2023-02-21T19:17:18;98212.69;;;-13.03;62.01
55347;BME280;41218;55.700;38.270;2023-02-21T19:22:18;98209.47;;;-13.05;61.95
55347;BME280;41218;55.700;38.270;2023-02-21T19:27:19;98202.47;;;-13.17;61.75
55347;BME280;41218;55.700;38.270;2023-02-21T19:32:20;98231.50;;;-13.10;61.84
55347;BME280;41218;55.700;38.270;2023-02-21T19:37:21;98234.63;;;-13.18;62.26
55347;BME280;41218;55.700;38.270;2023-02-21T19:42:21;98234.59;;;-13.23;61.95
55347;BME280;41218;55.700;38.270;2023-02-21T19:47:22;98235.06;;;-13.32;62.49
55347;BME280;41218;55.700;38.270;2023-02-21T19:52:22;98231.56;;;-13.37;62.24
55347;BME280;41218;55.700;38.270;2023-02-21T19:57:23;98239.84;;;-13.34;61.88
55347;BME280;41218;55.700;38.270;2023-02-21T20:02:23;98267.13;;;-13.43;62.07
55347;BME280;41218;55.700;38.270;2023-02-21T20:07:24;98256.69;;;-13.50;62.17
55347;BME280;41218;55.700;38.270;2023-02-21T20:12:24;98257.19;;;-13.53;62.57
55347;BME280;41218;55.700;38.270;2023-02-21T20:17:25;98266.47;;;-13.56;61.98
55347;BME280;41218;55.700;38.270;2023-02-21T20:22:25;98262.38;;;-13.63;62.63
55347;BME280;41218;55.700;38.270;2023-02-21T20:27:33;98270.03;;;-13.67;62.33
55347;BME280;41218;55.700;38.270;2023-02-21T20:32:33;98276.91;;;-13.71;62.84
55347;BME280;41218;55.700;38.270;2023-02-21T20:37:34;98283.28;;;-13.72;62.35
55347;BME280;41218;55.700;38.270;2023-02-21T20:42:35;98282.72;;;-13.74;62.51
55347;BME280;41218;55.700;38.270;2023-02-21T20:47:37;98274.13;;;-13.81;62.63
55347;BME280;41218;55.700;38.270;2023-02-21T20:52:37;98281.53;;;-13.83;62.84
55347;BME280;41218;55.700;38.270;2023-02-21T20:57:38;98284.75;;;-13.81;62.69
55347;BME280;41218;55.700;38.270;2023-02-21T21:02:38;98283.31;;;-13.89;62.78
55347;BME280;41218;55.700;38.270;2023-02-21T21:07:40;98290.19;;;-13.93;62.64
55347;BME280;41218;55.700;38.270;2023-02-21T21:12:42;98300.25;;;-13.95;62.40
55347;BME280;41218;55.700;38.270;2023-02-21T21:17:42;98309.94;;;-14.06;62.78
55347;BME280;41218;55.700;38.270;2023-02-21T21:22:43;98312.22;;;-14.15;62.93
55347;BME280;41218;55.700;38.270;2023-02-21T21:27:44;98319.63;;;-14.17;62.39
55347;BME280;41218;55.700;38.270;2023-02-21T21:32:44;98323.72;;;-14.26;62.78
55347;BME280;41218;55.700;38.270;2023-02-21T21:37:46;98339.66;;;-14.26;63.13
55347;BME280;41218;55.700;38.270;2023-02-21T21:42:48;98340.16;;;-14.29;62.89
55347;BME280;41218;55.700;38.270;2023-02-21T21:47:50;98346.91;;;-14.38;62.85
55347;BME280;41218;55.700;38.270;2023-02-21T21:52:54;98363.63;;;-14.38;62.88
55347;BME280;41218;55.700;38.270;2023-02-21T21:57:57;98353.91;;;-14.32;63.49
55347;BME280;41218;55.700;38.270;2023-02-21T22:02:59;98358.47;;;-14.27;63.52
55347;BME280;41218;55.700;38.270;2023-02-21T22:08:01;98358.00;;;-14.24;63.29
55347;BME280;41218;55.700;38.270;2023-02-21T22:13:01;98372.31;;;-14.25;63.60
55347;BME280;41218;55.700;38.270;2023-02-21T22:18:10;98376.75;;;-14.31;63.51
55347;BME280;41218;55.700;38.270;2023-02-21T22:23:11;98382.28;;;-14.33;63.44
55347;BME280;41218;55.700;38.270;2023-02-21T22:28:12;98387.44;;;-14.43;63.14
55347;BME280;41218;55.700;38.270;2023-02-21T22:33:15;98400.38;;;-14.46;63.39
55347;BME280;41218;55.700;38.270;2023-02-21T22:38:17;98403.44;;;-14.55;62.97
55347;BME280;41218;55.700;38.270;2023-02-21T22:43:18;98405.72;;;-14.63;63.47
55347;BME280;41218;55.700;38.270;2023-02-21T22:48:19;98406.97;;;-14.66;63.18
55347;BME280;41218;55.700;38.270;2023-02-21T22:53:20;98408.41;;;-14.75;63.13
55347;BME280;41218;55.700;38.270;2023-02-21T22:58:21;98409.16;;;-14.80;63.15
55347;BME280;41218;55.700;38.270;2023-02-21T23:03:21;98415.47;;;-14.81;63.20
55347;BME280;41218;55.700;38.270;2023-02-21T23:08:23;98420.78;;;-14.81;63.45
55347;BME280;41218;55.700;38.270;2023-02-21T23:13:23;98416.44;;;-14.87;63.17
55347;BME280;41218;55.700;38.270;2023-02-21T23:18:24;98428.22;;;-14.95;63.17
55347;BME280;41218;55.700;38.270;2023-02-21T23:23:27;98434.00;;;-14.98;63.35
55347;BME280;41218;55.700;38.270;2023-02-21T23:28:28;98434.69;;;-15.02;63.45
55347;BME280;41218;55.700;38.270;2023-02-21T23:33:30;98443.47;;;-15.02;63.64
55347;BME280;41218;55.700;38.270;2023-02-21T23:38:33;98444.16;;;-15.06;63.29
55347;BME280;41218;55.700;38.270;2023-02-21T23:43:39;98453.72;;;-15.05;63.33
55347;BME280;41218;55.700;38.270;2023-02-21T23:48:40;98461.72;;;-15.17;63.58
55347;BME280;41218;55.700;38.270;2023-02-21T23:53:41;98460.78;;;-15.23;63.24
55347;BME280;41218;55.700;38.270;2023-02-21T23:58:45;98468.31;;;-15.31;63.68
